Grand Mound, IA (52751)

11:11 AM CDT on May 22, 2017 (GMT -0500)
MUP122 | | Change Station
Active Advisory: Flood Watch Active Notice: Flood Watch

Elev 721 ft 41.82 °N, 90.65 °W | Updated 8 days ago

Clear
Clear
68.0 °F
Feels Like 68.0 °F
N
-
Wind Variable Wind from North

Today
High -- | Low -- °F
--% Chance of Precip.
Yesterday
High -- | Low -- °F
Precip. -- in
Pressure 29.97 in
Visibility 10.0 miles
Clouds Clear
Dew Point Not available.
Humidity Not available.
Rainfall in
Snow Depth Not available.
5:36 AM 8:22 PM
Waning Crescent, 14% visible
METAR KDVN 221552Z AUTO 21015G22KT 10SM CLR 19/09 A2997 RMK AO2 SLP147 T01940094 $
Pressure 29.97 in
Visibility 10.0 miles
Clouds Clear
Dew Point Not available.
Humidity Not available.
Rainfall in
Snow Depth Not available.
5:36 AM 8:22 PM
Waning Crescent, 14% visible
METAR KDVN 221552Z AUTO 21015G22KT 10SM CLR 19/09 A2997 RMK AO2 SLP147 T01940094 $

Get Your Daily Forecast Email!

Thanks for signing up!

Be on the lookout for a verification email in your inbox.

You'll start receiving severe weather alerts in your inbox..

×

10-Day Weather Forecast

Almanac

Astronomy

May. 22, 2017 Rise Set
Actual Time
Civil Twilight
Nautical Twilight
Astronomical Twilight
Moon
Length of Visible Light
Length of Day
Tomorrow will be .
, % of the Moon is Illuminated

Today's Extremes

State Highs State Lows

Community

WunderPhotos

Category 6

Welcome to Category 6. This is the collective home for Weather Underground's featured writeups by Dr. Jeff Masters (right), Bob Henson (left), Chris Burt, and other regular contributors.

Nearby

Air Quality

  Air Quality AQ Index Pollutant
Not available.

Snow Depth

Station Depth Elevation

Earthquake Activity

City Distance Mag. Time & Date
Minimum magnitude displayed is 2.5.

Coastal Water Temperatures

Place Temperature

Stations

Nearby Weather Stations

Station Location Temp. Windchill Dew Point Humidity Wind Precip. Elev Updated Type
                   

Watches & Warnings

Flood Watch
Issued: 10:42 AM CDT May. 22, 2017 – National Weather Service

The National Weather Service in Quad Cities has issued a
* Flood Watch for
the Mississippi River at Camanche
* until further notice.
* At 10:30 am Monday the stage was 14.1 feet.
* Flood stage is 17.0 feet.
* Minor flooding is possible.
* Forecast... rise above flood stage Monday morning... and continue
rising to 17.1 feet Monday morning.
* This forecast is based on routed flow from upstream in combination
with forecast rainfall. Consequently there is limited confidence
in the river reaching flood stage.



Lat... Lon 4176 9033 4189 9020 4188 9012 4180 9015
      4173 9027